Terminal Aerodrome Forecast
Issued by NWS

Home | Current Version | Previous Version | Text Only | Print | Product List | Glossary On
Versions: 1 2 3 4 5 6 7 8 9 10 11 12 13 14 15 16 17 18 19 20 21 22 23 24 25
000
FTAK31 PAJN 272321
TAFAYA
TAF
PAYA 272321Z 2800/2824 VRB05KT P6SM VCSH SCT015 BKN035 OVC050
      TEMPO 2800/2804 6SM -SHRA BKN015 OVC025
     FM280500 00000KT P6SM VCSH BKN030 OVC040
     FM280900 00000KT 5SM BR BKN015 OVC025
     FM281800 12004KT P6SM BKN015 OVC025
      AMD LTD TO CLD VIS AND WIND=

USA.gov is the U.S. government's official web portal to all federal, state and local government web resources and services.